Time;durP1;ratioP1;P1;durP2;ratioP2;P2;SDS_P1;SDS_P2;PMS_P1;PMS_P2;Temp;Humidity;BMP_temperature;BMP_pressure;BME280_temperature;BME280_humidity;BME280_pressure;Samples;Min_cycle;Max_cycle;Signal;HPM_P1;HPM_P2
2022/12/04 00:00:13;;;;;;;13.13;7.15;;;1.00;99.90;;;;;;5037273;28;20374;-79
2022/12/04 00:02:39;;;;;;;11.77;6.95;;;1.00;99.90;;;;;;5051819;28;20658;-78
2022/12/04 00:05:07;;;;;;;12.23;7.00;;;1.00;99.90;;;;;;5048192;28;20082;-79
2022/12/04 00:07:33;;;;;;;11.13;6.68;;;1.00;99.90;;;;;;5038522;28;20120;-78
2022/12/04 00:09:59;;;;;;;12.07;6.50;;;1.00;99.90;;;;;;5019239;28;20558;-79
2022/12/04 00:12:25;;;;;;;12.57;6.65;;;1.00;99.90;;;;;;5032238;28;20037;-79
2022/12/04 00:14:51;;;;;;;10.13;6.45;;;1.00;99.90;;;;;;5037264;28;20040;-79
2022/12/04 00:17:16;;;;;;;9.95;6.80;;;1.00;99.90;;;;;;5051976;28;20103;-79
2022/12/04 00:19:42;;;;;;;13.07;7.25;;;1.00;99.90;;;;;;5022227;28;20071;-79
2022/12/04 00:22:08;;;;;;;12.40;6.95;;;1.00;99.90;;;;;;5039098;28;20037;-78
2022/12/04 00:24:34;;;;;;;11.95;7.15;;;1.00;99.90;;;;;;5017908;28;20033;-79
2022/12/04 00:27:00;;;;;;;11.88;6.88;;;1.00;99.90;;;;;;5036789;28;20044;-79
2022/12/04 00:29:26;;;;;;;13.77;6.85;;;1.00;99.90;;;;;;5030030;28;20110;-79
2022/12/04 00:31:51;;;;;;;10.23;6.22;;;1.00;99.90;;;;;;5047326;28;20386;-79
2022/12/04 00:34:17;;;;;;;11.90;6.35;;;1.00;99.90;;;;;;5047204;28;20673;-79
2022/12/04 00:36:43;;;;;;;10.88;6.70;;;1.00;99.90;;;;;;5011742;28;20037;-79
2022/12/04 00:39:09;;;;;;;11.77;7.22;;;1.00;99.90;;;;;;5042803;28;20033;-79
2022/12/04 00:41:35;;;;;;;11.40;6.50;;;1.00;99.90;;;;;;5026998;28;20063;-79
2022/12/04 00:44:01;;;;;;;10.27;6.55;;;1.00;99.90;;;;;;5025744;28;20485;-79
2022/12/04 00:46:27;;;;;;;12.32;6.90;;;1.00;99.90;;;;;;5054821;28;20029;-79
2022/12/04 00:48:53;;;;;;;14.98;7.20;;;0.90;99.90;;;;;;5014583;28;20083;-78
2022/12/04 00:51:22;;;;;;;11.60;6.38;;;1.00;99.90;;;;;;5052195;28;20037;-78
2022/12/04 00:53:49;;;;;;;10.85;6.45;;;1.00;99.90;;;;;;5041911;28;20029;-79
2022/12/04 00:56:27;;;;;;;10.60;6.68;;;1.00;99.90;;;;;;5045066;28;20032;-79
2022/12/04 00:58:56;;;;;;;12.18;7.15;;;1.00;99.90;;;;;;5032286;28;20029;-79
2022/12/04 01:01:23;;;;;;;12.52;6.50;;;1.00;99.90;;;;;;5042982;28;20112;-78
2022/12/04 01:03:49;;;;;;;11.50;6.80;;;1.00;99.90;;;;;;5052757;28;20188;-78
2022/12/04 01:06:23;;;;;;;12.43;6.43;;;1.00;99.90;;;;;;5041562;28;20459;-78
2022/12/04 01:08:50;;;;;;;12.05;6.95;;;1.00;99.90;;;;;;5046798;28;20084;-78
2022/12/04 01:11:18;;;;;;;12.68;7.25;;;1.00;99.90;;;;;;5049050;28;20051;-79
2022/12/04 01:13:44;;;;;;;10.90;6.28;;;1.00;99.90;;;;;;5046423;28;20125;-78
2022/12/04 01:16:19;;;;;;;9.88;5.95;;;1.00;99.90;;;;;;5039470;28;20025;-77
2022/12/04 01:18:46;;;;;;;10.38;6.22;;;1.00;99.90;;;;;;5030580;28;20033;-78
2022/12/04 01:21:12;;;;;;;12.00;6.53;;;0.90;99.90;;;;;;5031475;28;20028;-78
2022/12/04 01:23:38;;;;;;;12.27;6.65;;;0.90;99.90;;;;;;5043584;28;20463;-78
2022/12/04 01:26:04;;;;;;;11.82;5.63;;;0.90;99.90;;;;;;5022335;28;20091;-78
2022/12/04 01:28:30;;;;;;;10.50;6.40;;;0.90;99.90;;;;;;5034027;28;20118;-78
2022/12/04 01:31:05;;;;;;;11.30;6.35;;;0.90;99.90;;;;;;5037294;28;20516;-79
2022/12/04 01:33:32;;;;;;;13.13;6.68;;;0.90;99.90;;;;;;5052163;28;20024;-78
2022/12/04 01:35:59;;;;;;;10.48;6.13;;;0.90;99.90;;;;;;5027263;28;20079;-79
2022/12/04 01:38:26;;;;;;;12.02;6.45;;;0.80;99.90;;;;;;5034204;28;20033;-79
2022/12/04 01:40:52;;;;;;;11.13;6.40;;;0.80;99.90;;;;;;5052150;28;20052;-79
2022/12/04 01:43:19;;;;;;;10.82;5.93;;;0.80;99.90;;;;;;5042215;28;20429;-79
2022/12/04 01:45:49;;;;;;;10.43;6.18;;;0.80;99.90;;;;;;5039580;28;20032;-78
2022/12/04 01:48:38;;;;;;;10.77;5.70;;;0.80;99.90;;;;;;5005557;28;20060;-78
2022/12/04 01:51:13;;;;;;;10.77;5.65;;;0.80;99.90;;;;;;5042390;28;20048;-78
2022/12/04 01:53:40;;;;;;;;;;;0.70;99.90;;;;;;5047094;28;20546;-78
2022/12/04 01:56:06;;;;;;;12.02;6.60;;;0.70;99.90;;;;;;5039984;28;19968;-79
2022/12/04 01:58:37;;;;;;;12.45;7.13;;;0.70;99.90;;;;;;5023028;28;20033;-79
2022/12/04 02:01:05;;;;;;;11.35;6.47;;;0.70;99.90;;;;;;5025447;28;20162;-78
2022/12/04 02:03:31;;;;;;;11.35;6.00;;;0.70;99.90;;;;;;5030227;28;20029;-78
2022/12/04 02:05:57;;;;;;;11.45;6.03;;;0.70;99.90;;;;;;5028412;28;20061;-78
2022/12/04 02:08:24;;;;;;;11.05;6.32;;;0.60;99.90;;;;;;5036151;28;20409;-78
2022/12/04 02:11:07;;;;;;;12.60;6.80;;;0.60;99.90;;;;;;5055328;28;20025;-78
2022/12/04 02:13:53;;;;;;;9.98;6.07;;;0.60;99.90;;;;;;5054801;28;20061;-78
2022/12/04 02:16:59;;;;;;;10.07;6.10;;;0.50;99.90;;;;;;5023092;28;20538;-79
2022/12/04 02:19:59;;;;;;;11.35;5.80;;;0.50;99.90;;;;;;5003689;28;20277;-79
2022/12/04 02:22:41;;;;;;;10.77;5.95;;;0.50;99.90;;;;;;5053616;28;20116;-78
2022/12/04 02:25:45;;;;;;;10.30;5.95;;;0.50;99.90;;;;;;5053583;28;20021;-78
2022/12/04 02:28:40;;;;;;;9.80;5.57;;;0.40;99.90;;;;;;5037006;28;20512;-79
2022/12/04 02:31:14;;;;;;;8.18;5.38;;;0.40;99.90;;;;;;5042747;28;20021;-79
2022/12/04 02:33:54;;;;;;;9.30;5.60;;;0.30;99.90;;;;;;5033780;28;20044;-79
2022/12/04 02:36:25;;;;;;;12.40;6.43;;;0.30;99.90;;;;;;5054422;28;20044;-78
2022/12/04 02:38:57;;;;;;;9.75;5.45;;;0.30;99.90;;;;;;5036075;28;20071;-79
2022/12/04 02:41:29;;;;;;;9.52;6.30;;;0.30;99.90;;;;;;5037211;28;20116;-78
2022/12/04 02:44:02;;;;;;;10.35;5.88;;;0.30;99.90;;;;;;5040396;28;20511;-78
2022/12/04 02:46:45;;;;;;;9.60;5.75;;;0.30;99.90;;;;;;5049826;28;20033;-79
2022/12/04 02:49:16;;;;;;;11.18;6.28;;;0.30;99.90;;;;;;5054534;28;20033;-78
2022/12/04 02:51:44;;;;;;;11.05;5.95;;;0.30;99.90;;;;;;5054295;28;20064;-79
2022/12/04 02:54:15;;;;;;;11.98;6.30;;;0.30;99.90;;;;;;5032407;28;20034;-78
2022/12/04 02:56:44;;;;;;;9.68;5.97;;;0.30;99.90;;;;;;5038551;28;20047;-78
2022/12/04 02:59:15;;;;;;;12.18;6.45;;;0.30;99.90;;;;;;5026078;28;20068;-78
2022/12/04 03:01:45;;;;;;;11.15;5.90;;;0.30;99.90;;;;;;5040225;28;20055;-78
2022/12/04 03:04:18;;;;;;;8.98;5.97;;;0.30;99.90;;;;;;5048729;28;20021;-79
2022/12/04 03:06:48;;;;;;;10.32;5.65;;;0.30;99.90;;;;;;5036030;28;20063;-78
2022/12/04 03:09:16;;;;;;;11.38;5.70;;;0.30;99.90;;;;;;5015885;28;20029;-78
2022/12/04 03:11:48;;;;;;;11.30;5.50;;;0.30;99.90;;;;;;5028448;28;20025;-79
2022/12/04 03:14:31;;;;;;;12.70;6.43;;;0.30;99.90;;;;;;5052449;28;20028;-78
2022/12/04 03:17:03;;;;;;;10.73;5.88;;;0.40;99.90;;;;;;5039857;28;20461;-79
2022/12/04 03:19:37;;;;;;;10.35;5.35;;;0.30;99.90;;;;;;5021119;28;20053;-79
2022/12/04 03:22:09;;;;;;;10.15;5.63;;;0.30;99.90;;;;;;5049561;28;20032;-78
2022/12/04 03:24:59;;;;;;;11.23;5.78;;;0.30;99.90;;;;;;5045225;28;20041;-78
2022/12/04 03:28:00;;;;;;;9.73;5.80;;;0.30;99.90;;;;;;5032944;28;20126;-79
2022/12/04 03:30:35;;;;;;;8.63;4.97;;;0.30;99.90;;;;;;5018254;28;20026;-79
2022/12/04 03:33:11;;;;;;;10.63;5.47;;;0.40;99.90;;;;;;5035140;28;20735;-79
2022/12/04 03:35:53;;;;;;;10.75;6.00;;;0.30;99.90;;;;;;5035132;28;20029;-79
2022/12/04 03:38:36;;;;;;;10.20;5.22;;;0.40;99.90;;;;;;5052423;28;20246;-78
2022/12/04 03:41:32;;;;;;;10.95;5.75;;;0.30;99.90;;;;;;5034963;28;20653;-79
2022/12/04 03:43:58;;;;;;;10.18;5.72;;;0.30;99.90;;;;;;5043510;28;20511;-79
2022/12/04 03:46:29;;;;;;;9.95;5.68;;;0.30;99.90;;;;;;5040189;28;20032;-78
2022/12/04 03:49:17;;;;;;;9.77;5.85;;;0.30;99.90;;;;;;5050183;28;20032;-78
2022/12/04 03:52:01;;;;;;;12.48;6.10;;;0.30;99.90;;;;;;5044350;28;20025;-78
2022/12/04 03:54:39;;;;;;;9.90;5.82;;;0.30;99.90;;;;;;5016661;28;20537;-79
2022/12/04 03:57:12;;;;;;;11.32;5.68;;;0.20;99.90;;;;;;5045805;28;20409;-78
2022/12/04 03:59:47;;;;;;;11.70;5.57;;;0.20;99.90;;;;;;5035820;28;20501;-78
2022/12/04 04:02:18;;;;;;;8.48;5.38;;;0.20;99.90;;;;;;5046449;28;20167;-78
2022/12/04 04:04:49;;;;;;;11.05;5.85;;;0.20;99.90;;;;;;5042705;28;20061;-78
2022/12/04 04:07:21;;;;;;;10.02;5.45;;;0.10;99.90;;;;;;5046209;28;20029;-78
2022/12/04 04:09:52;;;;;;;8.30;5.05;;;0.10;99.90;;;;;;5044671;28;20112;-78
2022/12/04 04:12:25;;;;;;;9.18;5.43;;;0.10;99.90;;;;;;5026590;28;20033;-79
2022/12/04 04:26:14;;;;;;;10.93;6.15;;;0.00;99.90;;;;;;5021284;28;20029;-78
2022/12/04 04:28:41;;;;;;;8.48;5.32;;;-0.10;99.90;;;;;;5039958;28;20032;-78
2022/12/04 04:31:32;;;;;;;10.15;5.60;;;-0.10;99.90;;;;;;5022495;28;20037;-79
2022/12/04 04:34:11;;;;;;;8.50;5.30;;;-0.10;99.90;;;;;;5045263;28;20091;-78
2022/12/04 04:36:54;;;;;;;9.65;4.82;;;-0.10;99.90;;;;;;5043383;28;20029;-79
2022/12/04 04:39:29;;;;;;;9.05;5.60;;;-0.10;99.90;;;;;;5041116;28;20160;-79
2022/12/04 04:42:03;;;;;;;10.60;5.10;;;-0.10;99.90;;;;;;5048226;28;20061;-78
2022/12/04 04:44:44;;;;;;;9.48;5.32;;;-0.10;99.90;;;;;;5044330;28;20061;-78
2022/12/04 04:47:17;;;;;;;11.10;5.53;;;-0.20;99.90;;;;;;5051459;28;20029;-78
2022/12/04 04:49:45;;;;;;;11.77;5.97;;;-0.20;99.90;;;;;;5033782;28;20064;-79
2022/12/04 04:52:10;;;;;;;8.70;5.50;;;-0.20;99.90;;;;;;5038667;28;20044;-78
2022/12/04 04:54:37;;;;;;;10.40;5.68;;;-0.30;99.90;;;;;;5027423;28;20686;-78
2022/12/04 04:57:03;;;;;;;10.85;6.28;;;-0.20;99.90;;;;;;5048461;28;20528;-79
2022/12/04 04:59:29;;;;;;;10.32;5.90;;;-0.20;99.90;;;;;;5024894;28;20033;-78
2022/12/04 05:01:56;;;;;;;11.02;5.80;;;-0.20;99.90;;;;;;5038322;28;20412;-78
2022/12/04 05:04:22;;;;;;;11.43;5.78;;;-0.30;99.90;;;;;;5035439;28;20034;-79
2022/12/04 05:06:47;;;;;;;10.18;5.80;;;-0.20;99.90;;;;;;5054096;28;20036;-79
2022/12/04 05:09:13;;;;;;;9.98;5.43;;;-0.20;99.90;;;;;;5044736;28;20032;-78
2022/12/04 05:11:39;;;;;;;8.05;5.10;;;-0.20;99.90;;;;;;5041771;28;20036;-78
2022/12/04 05:14:05;;;;;;;8.23;5.40;;;-0.30;99.90;;;;;;5044547;28;20465;-78
2022/12/04 05:16:31;;;;;;;11.23;5.40;;;-0.30;99.90;;;;;;5022151;28;20034;-78
2022/12/04 05:21:42;;;;;;;9.00;5.00;;;-0.30;99.90;;;;;;5047403;28;20296;-79
2022/12/04 05:24:08;;;;;;;10.38;5.68;;;-0.30;99.90;;;;;;5043576;28;20034;-78
2022/12/04 05:26:34;;;;;;;9.68;4.88;;;-0.30;99.90;;;;;;5050561;28;20068;-78
2022/12/04 05:29:00;;;;;;;11.27;5.30;;;-0.30;99.90;;;;;;5028777;28;20608;-78
2022/12/04 05:31:26;;;;;;;9.02;5.18;;;-0.40;99.90;;;;;;5044586;28;20053;-78
2022/12/04 05:33:51;;;;;;;7.25;4.95;;;-0.30;99.90;;;;;;5029255;28;20519;-78
2022/12/04 05:36:17;;;;;;;9.80;5.40;;;-0.30;99.90;;;;;;5031810;28;20030;-78
2022/12/04 05:38:43;;;;;;;7.97;4.60;;;-0.40;99.90;;;;;;5036013;28;20032;-78
2022/12/04 05:41:09;;;;;;;7.70;4.63;;;-0.40;99.90;;;;;;5042610;28;20040;-78
2022/12/04 05:43:35;;;;;;;10.88;5.00;;;-0.30;99.90;;;;;;5034588;28;20033;-79
2022/12/04 05:46:06;;;;;;;10.07;5.38;;;-0.40;99.90;;;;;;5041871;28;20048;-78
2022/12/04 05:48:33;;;;;;;7.20;4.40;;;-0.30;99.90;;;;;;5040603;28;20104;-78
2022/12/04 05:50:59;;;;;;;10.52;5.15;;;-0.30;99.90;;;;;;5041885;28;20146;-78
2022/12/04 05:53:25;;;;;;;9.60;5.03;;;-0.30;99.90;;;;;;5045305;28;20045;-78
2022/12/04 05:56:01;;;;;;;8.38;4.88;;;-0.30;99.90;;;;;;5040917;28;20037;-78
2022/12/04 05:58:27;;;;;;;8.30;4.82;;;-0.30;99.90;;;;;;5034246;28;20041;-78
2022/12/04 06:00:53;;;;;;;8.32;4.82;;;-0.30;99.90;;;;;;5044417;28;20055;-78
2022/12/04 06:03:19;;;;;;;10.45;4.97;;;-0.30;99.90;;;;;;5047251;28;20061;-78
2022/12/04 06:05:45;;;;;;;7.60;4.70;;;-0.30;99.90;;;;;;5042503;28;20253;-78
2022/12/04 06:08:11;;;;;;;9.18;5.22;;;-0.30;99.90;;;;;;5023579;28;20037;-78
2022/12/04 06:10:37;;;;;;;7.53;4.82;;;-0.30;99.90;;;;;;5021215;28;20036;-78
2022/12/04 06:13:04;;;;;;;8.65;4.95;;;-0.30;99.90;;;;;;5013170;28;20026;-78
2022/12/04 06:15:30;;;;;;;9.45;5.00;;;-0.30;99.90;;;;;;5045196;28;20509;-77
2022/12/04 06:17:56;;;;;;;8.02;4.82;;;-0.40;99.90;;;;;;5054815;28;20040;-78
2022/12/04 06:20:22;;;;;;;9.30;5.22;;;-0.30;99.90;;;;;;5023634;28;20037;-78
2022/12/04 06:22:47;;;;;;;8.90;5.22;;;-0.40;99.90;;;;;;5047758;28;20037;-78
2022/12/04 06:25:13;;;;;;;8.77;5.88;;;-0.40;99.90;;;;;;5047105;28;20120;-78
2022/12/04 06:27:38;;;;;;;9.70;5.35;;;-0.40;99.90;;;;;;5042572;28;20715;-78
2022/12/04 06:30:05;;;;;;;10.63;5.38;;;-0.40;99.90;;;;;;5030210;28;20274;-78
2022/12/04 06:32:31;;;;;;;11.20;5.65;;;-0.50;99.90;;;;;;5035453;28;20025;-78
2022/12/04 06:34:57;;;;;;;9.30;5.43;;;-0.50;99.90;;;;;;5040019;28;20612;-77
2022/12/04 06:37:24;;;;;;;9.80;6.10;;;-0.50;99.90;;;;;;5040386;28;20535;-78
2022/12/04 06:39:50;;;;;;;10.38;5.80;;;-0.50;99.90;;;;;;5049166;28;20053;-78
2022/12/04 06:42:16;;;;;;;8.65;5.05;;;-0.50;99.90;;;;;;5042486;28;20037;-78
2022/12/04 06:44:41;;;;;;;9.10;5.47;;;-0.50;99.90;;;;;;5020893;28;20091;-78
2022/12/04 06:47:07;;;;;;;10.20;5.75;;;-0.50;99.90;;;;;;5023471;28;20043;-78
2022/12/04 06:49:33;;;;;;;9.35;5.35;;;-0.50;99.90;;;;;;5018907;28;20025;-78
2022/12/04 06:51:59;;;;;;;9.32;5.53;;;-0.50;99.90;;;;;;5045216;28;20029;-78
2022/12/04 06:54:25;;;;;;;10.13;5.72;;;-0.50;99.90;;;;;;5026052;28;20120;-78
2022/12/04 06:56:51;;;;;;;8.98;5.20;;;-0.50;99.90;;;;;;5055327;28;20060;-78
2022/12/04 06:59:17;;;;;;;10.75;6.10;;;-0.50;99.90;;;;;;5046700;28;20505;-79
2022/12/04 07:01:42;;;;;;;9.38;4.97;;;-0.50;99.90;;;;;;5041827;28;20063;-78
2022/12/04 07:04:08;;;;;;;10.20;5.32;;;-0.50;99.90;;;;;;5035635;28;20045;-78
2022/12/04 07:06:36;;;;;;;9.38;5.40;;;-0.50;99.90;;;;;;5050047;28;20032;-78
2022/12/04 07:09:08;;;;;;;8.77;5.20;;;-0.50;99.90;;;;;;5043284;28;20029;-78
2022/12/04 07:11:34;;;;;;;9.40;5.65;;;-0.50;99.90;;;;;;5055906;28;20200;-78
2022/12/04 07:14:01;;;;;;;9.32;5.60;;;-0.50;99.90;;;;;;5052301;28;20033;-77
2022/12/04 07:16:27;;;;;;;8.52;4.80;;;-0.50;99.90;;;;;;5053687;28;20033;-77
2022/12/04 07:18:55;;;;;;;11.82;5.75;;;-0.50;99.90;;;;;;5038305;28;20059;-78
2022/12/04 07:21:24;;;;;;;11.55;6.50;;;-0.50;99.90;;;;;;5056023;28;20433;-78
2022/12/04 07:23:51;;;;;;;8.63;5.13;;;-0.50;99.90;;;;;;5006559;28;20044;-78
2022/12/04 07:26:18;;;;;;;9.93;4.95;;;-0.50;99.90;;;;;;5052064;28;20033;-78
2022/12/04 07:28:44;;;;;;;8.95;5.55;;;-0.40;99.90;;;;;;5014267;28;20048;-77
2022/12/04 07:31:14;;;;;;;9.50;5.55;;;-0.40;99.90;;;;;;5047718;28;20548;-77
2022/12/04 07:33:40;;;;;;;9.38;5.63;;;-0.40;99.90;;;;;;5041246;28;20035;-78
2022/12/04 07:36:07;;;;;;;9.13;5.57;;;-0.40;99.90;;;;;;5041989;28;20132;-78
2022/12/04 07:38:34;;;;;;;8.68;5.22;;;-0.30;99.90;;;;;;5050567;28;20033;-78
2022/12/04 07:41:01;;;;;;;9.02;5.20;;;-0.30;99.90;;;;;;5037572;28;20156;-77
2022/12/04 07:43:29;;;;;;;9.07;5.50;;;-0.20;99.90;;;;;;5052828;28;20041;-78
2022/12/04 07:45:56;;;;;;;8.57;5.20;;;-0.20;99.90;;;;;;5054805;28;20020;-78
2022/12/04 07:48:21;;;;;;;9.20;5.30;;;-0.20;99.90;;;;;;5044009;28;20033;-77
2022/12/04 07:50:47;;;;;;;9.25;5.70;;;-0.10;99.90;;;;;;5046934;28;20104;-77
2022/12/04 07:53:13;;;;;;;8.93;5.43;;;-0.10;99.90;;;;;;5021098;28;20086;-78
2022/12/04 07:55:39;;;;;;;11.77;5.35;;;-0.10;99.90;;;;;;5046776;28;20167;-78
2022/12/04 07:58:05;;;;;;;11.10;5.45;;;-0.10;99.90;;;;;;5047006;28;20129;-78
2022/12/04 08:00:31;;;;;;;9.10;5.72;;;-0.10;99.90;;;;;;5048491;28;20100;-78
2022/12/04 08:02:57;;;;;;;11.30;5.57;;;0.00;99.90;;;;;;5051273;28;20029;-77
2022/12/04 08:05:23;;;;;;;9.93;5.60;;;0.00;99.90;;;;;;5043589;28;20079;-77
2022/12/04 08:07:48;;;;;;;7.55;5.07;;;0.00;99.90;;;;;;5039586;28;20033;-78
2022/12/04 08:10:14;;;;;;;9.48;5.60;;;0.10;99.90;;;;;;5036079;28;20100;-77
2022/12/04 08:12:40;;;;;;;10.23;5.50;;;0.20;99.90;;;;;;5055141;28;20060;-78
2022/12/04 08:15:06;;;;;;;8.73;5.30;;;0.20;99.90;;;;;;5035649;28;20029;-78
2022/12/04 08:17:32;;;;;;;8.00;4.93;;;0.30;99.90;;;;;;5037560;28;20156;-77
2022/12/04 08:19:58;;;;;;;8.13;5.25;;;0.40;99.90;;;;;;5019326;28;20060;-78
2022/12/04 08:22:24;;;;;;;9.77;5.53;;;0.50;99.90;;;;;;5021455;28;20065;-79
2022/12/04 08:24:50;;;;;;;12.30;5.80;;;0.60;99.90;;;;;;5019847;28;20378;-78
2022/12/04 08:27:16;;;;;;;9.50;5.65;;;0.70;99.90;;;;;;5049863;28;20041;-78
2022/12/04 08:29:41;;;;;;;8.00;5.68;;;0.70;99.90;;;;;;5032670;28;20037;-78
2022/12/04 08:32:07;;;;;;;8.48;5.38;;;0.80;99.90;;;;;;5045862;28;20401;-78
2022/12/04 08:34:33;;;;;;;8.32;5.10;;;0.80;99.90;;;;;;5014166;28;20413;-77
2022/12/04 08:36:59;;;;;;;7.53;4.93;;;0.80;99.90;;;;;;5049214;28;20025;-78
2022/12/04 08:39:25;;;;;;;7.78;4.90;;;0.80;99.90;;;;;;5034103;28;20044;-78
2022/12/04 08:41:51;;;;;;;8.68;4.32;;;0.80;99.90;;;;;;5015218;28;20071;-77
2022/12/04 08:44:16;;;;;;;9.43;5.22;;;0.90;99.90;;;;;;5032957;28;20071;-78
2022/12/04 08:46:42;;;;;;;7.38;4.75;;;0.90;99.90;;;;;;5035495;28;20036;-79
2022/12/04 08:49:08;;;;;;;8.50;4.68;;;1.00;99.90;;;;;;5033264;28;20115;-80
2022/12/04 08:51:35;;;;;;;7.07;4.60;;;1.00;99.90;;;;;;5022777;28;20044;-78
2022/12/04 08:54:04;;;;;;;6.70;4.30;;;1.10;99.90;;;;;;5021842;28;20727;-78
2022/12/04 08:56:32;;;;;;;6.70;4.35;;;1.10;99.90;;;;;;5037413;28;20037;-78
2022/12/04 08:58:59;;;;;;;7.97;4.55;;;1.10;99.90;;;;;;5047179;28;20481;-78
2022/12/04 09:01:25;;;;;;;6.93;4.40;;;1.20;99.90;;;;;;5040146;28;20037;-78
2022/12/04 09:03:51;;;;;;;7.53;4.65;;;1.20;99.90;;;;;;5049466;28;20033;-78
2022/12/04 09:06:18;;;;;;;7.25;4.47;;;1.20;99.90;;;;;;5021655;28;20086;-78
2022/12/04 09:08:44;;;;;;;6.57;4.05;;;1.20;99.90;;;;;;5035103;28;20065;-78
2022/12/04 09:11:14;;;;;;;8.18;4.68;;;1.20;99.90;;;;;;5046234;28;20052;-77
2022/12/04 09:13:41;;;;;;;7.85;4.57;;;1.20;99.90;;;;;;5032416;28;20033;-78
2022/12/04 09:16:09;;;;;;;7.00;4.43;;;1.20;99.90;;;;;;5035332;28;20036;-78
2022/12/04 09:18:36;;;;;;;8.05;4.57;;;1.20;99.90;;;;;;5032257;28;20036;-78
2022/12/04 09:21:05;;;;;;;7.10;4.45;;;1.20;99.90;;;;;;5015625;28;20040;-78
2022/12/04 09:23:32;;;;;;;6.63;4.75;;;1.20;99.90;;;;;;5048070;28;20037;-77
2022/12/04 09:25:58;;;;;;;6.57;4.32;;;1.20;99.90;;;;;;5032814;28;20067;-78
2022/12/04 09:28:24;;;;;;;6.85;4.32;;;1.20;99.90;;;;;;5008078;28;20029;-80
2022/12/04 09:31:03;;;;;;;7.95;4.45;;;1.20;99.90;;;;;;5036036;28;20025;-80
2022/12/04 09:33:29;;;;;;;7.57;5.10;;;1.10;99.90;;;;;;5020133;28;20029;-78
2022/12/04 09:35:57;;;;;;;6.70;4.38;;;1.20;99.90;;;;;;5039979;28;20029;-78
2022/12/04 09:38:23;;;;;;;9.60;5.43;;;1.20;99.90;;;;;;5049671;28;20032;-78
2022/12/04 09:41:06;;;;;;;8.07;5.53;;;1.30;99.90;;;;;;5031410;28;20033;-79
2022/12/04 09:43:42;;;;;;;8.88;5.28;;;1.40;99.90;;;;;;5030726;28;20035;-79
2022/12/04 09:46:17;;;;;;;9.27;5.35;;;1.50;99.90;;;;;;5038025;28;20025;-79
2022/12/04 09:48:47;;;;;;;7.80;5.50;;;1.60;99.90;;;;;;5043083;28;20321;-79
2022/12/04 09:51:19;;;;;;;9.13;5.90;;;1.70;99.90;;;;;;5015958;28;20037;-78
2022/12/04 09:53:51;;;;;;;8.13;5.05;;;1.80;99.90;;;;;;5035199;28;20057;-79
2022/12/04 09:56:18;;;;;;;8.15;5.35;;;1.90;99.90;;;;;;5023869;28;20610;-79
2022/12/04 09:59:10;;;;;;;8.93;5.85;;;1.90;99.90;;;;;;5024814;28;20033;-78
2022/12/04 10:01:50;;;;;;;9.35;5.65;;;2.00;99.90;;;;;;5025140;28;20088;-79
2022/12/04 10:04:17;;;;;;;7.70;4.68;;;2.10;99.90;;;;;;5022161;28;20104;-79
2022/12/04 10:06:50;;;;;;;7.90;4.93;;;2.20;99.90;;;;;;5027799;28;20056;-79
2022/12/04 10:09:45;;;;;;;8.88;5.10;;;2.30;99.90;;;;;;5014413;28;20021;-79
2022/12/04 10:12:22;;;;;;;7.90;5.50;;;2.40;99.90;;;;;;5032090;28;20042;-79
2022/12/04 10:15:06;;;;;;;8.25;5.43;;;2.50;99.90;;;;;;5027911;28;20496;-79
2022/12/04 10:17:58;;;;;;;7.85;4.75;;;2.50;99.90;;;;;;5041444;28;20032;-79
2022/12/04 10:20:42;;;;;;;5.45;4.15;;;2.50;99.90;;;;;;5014833;28;20052;-79
2022/12/04 10:23:23;;;;;;;6.57;4.47;;;2.50;99.90;;;;;;5044665;28;20449;-78
2022/12/04 10:25:53;;;;;;;7.80;4.53;;;2.50;99.90;;;;;;5025015;28;20033;-79
2022/12/04 10:28:22;;;;;;;10.15;5.05;;;2.40;99.90;;;;;;5027863;28;20493;-79
2022/12/04 10:30:51;;;;;;;7.72;4.95;;;2.40;99.90;;;;;;5025916;28;20016;-79
2022/12/04 10:33:22;;;;;;;7.05;4.55;;;2.40;99.90;;;;;;5022004;28;20441;-78
2022/12/04 10:35:51;;;;;;;7.13;4.97;;;2.40;99.90;;;;;;5039739;28;20078;-78
2022/12/04 10:38:20;;;;;;;6.90;4.53;;;2.40;99.90;;;;;;5048976;28;20073;-79
2022/12/04 10:40:50;;;;;;;6.70;4.32;;;2.40;99.90;;;;;;5044044;28;20033;-77
2022/12/04 10:43:43;;;;;;;6.38;4.45;;;2.50;99.90;;;;;;5041486;28;20045;-78
2022/12/04 10:46:17;;;;;;;6.80;4.30;;;2.50;99.90;;;;;;5044519;28;20131;-79
2022/12/04 10:48:47;;;;;;;6.35;4.80;;;2.50;99.90;;;;;;5034392;28;20025;-77
2022/12/04 10:51:18;;;;;;;5.30;4.38;;;2.60;99.90;;;;;;5050091;28;20079;-78
2022/12/04 10:53:48;;;;;;;9.20;4.47;;;2.60;99.90;;;;;;5032082;28;20036;-79
2022/12/04 10:56:24;;;;;;;6.90;4.18;;;2.70;99.90;;;;;;5040337;28;20382;-77
2022/12/04 10:59:02;;;;;;;7.07;4.63;;;2.70;99.90;;;;;;5010815;28;20028;-78
2022/12/04 11:01:30;;;;;;;6.97;4.78;;;2.60;99.90;;;;;;5033310;28;20441;-77
2022/12/04 11:04:06;;;;;;;6.40;4.97;;;2.60;99.90;;;;;;5038543;28;20051;-77
2022/12/04 11:06:34;;;;;;;6.72;5.03;;;2.60;99.90;;;;;;5026428;28;20029;-78
2022/12/04 11:09:01;;;;;;;6.25;4.45;;;2.60;99.90;;;;;;5038527;28;20029;-78
2022/12/04 11:11:31;;;;;;;7.10;4.57;;;2.60;99.90;;;;;;5025797;28;20032;-78
2022/12/04 11:14:14;;;;;;;6.88;4.40;;;2.60;99.90;;;;;;5035002;28;20030;-78
2022/12/04 11:16:43;;;;;;;7.32;4.47;;;2.60;99.90;;;;;;5049509;28;20104;-78
2022/12/04 11:19:27;;;;;;;7.97;4.80;;;2.60;99.90;;;;;;5020426;28;20067;-79
2022/12/04 11:22:04;;;;;;;6.32;4.38;;;2.50;99.90;;;;;;5026957;28;20128;-78
2022/12/04 11:24:36;;;;;;;6.32;4.45;;;2.50;99.90;;;;;;5046090;28;20059;-78
2022/12/04 11:27:14;;;;;;;8.60;5.10;;;2.50;99.90;;;;;;5052101;28;20021;-78
2022/12/04 11:29:43;;;;;;;5.93;4.28;;;2.40;99.90;;;;;;5046895;28;20100;-78
2022/12/04 11:32:21;;;;;;;6.40;4.07;;;2.40;99.90;;;;;;5037785;28;20100;-78
2022/12/04 11:34:50;;;;;;;6.15;4.38;;;2.40;99.90;;;;;;5046330;28;20040;-78
2022/12/04 11:37:24;;;;;;;6.22;4.47;;;2.40;99.90;;;;;;5048318;28;20066;-77
2022/12/04 11:39:52;;;;;;;6.68;4.70;;;2.40;99.90;;;;;;5019156;28;20087;-79
2022/12/04 11:42:29;;;;;;;7.43;4.88;;;2.40;99.90;;;;;;5034884;28;20099;-78
2022/12/04 11:45:00;;;;;;;8.32;5.40;;;2.50;99.90;;;;;;5033478;28;20498;-78
2022/12/04 11:47:32;;;;;;;8.60;5.15;;;2.60;99.90;;;;;;5052538;28;20068;-78
2022/12/04 11:50:04;;;;;;;7.60;4.70;;;2.60;99.90;;;;;;5046579;28;20085;-78
2022/12/04 11:53:01;;;;;;;8.18;4.80;;;2.70;99.90;;;;;;5033400;28;20115;-78
2022/12/04 11:55:38;;;;;;;6.93;4.95;;;2.80;99.90;;;;;;5045347;28;20040;-78
2022/12/04 11:58:43;;;;;;;8.18;5.20;;;2.90;99.90;;;;;;5038901;28;20037;-77
2022/12/04 12:01:33;;;;;;;6.93;4.90;;;2.90;99.90;;;;;;5047383;28;20024;-78
2022/12/04 12:04:36;;;;;;;7.43;5.35;;;2.90;99.90;;;;;;5038153;28;20677;-78
2022/12/04 12:07:37;;;;;;;7.82;5.03;;;2.80;99.90;;;;;;5040423;28;20059;-77
2022/12/04 12:10:18;;;;;;;6.80;4.72;;;2.80;99.90;;;;;;5042593;28;20516;-77
2022/12/04 12:12:55;;;;;;;7.05;4.28;;;2.70;99.90;;;;;;5034659;28;20029;-77
2022/12/04 12:15:30;;;;;;;7.07;5.15;;;2.60;99.90;;;;;;5039970;28;20036;-77
2022/12/04 12:18:10;;;;;;;9.00;5.85;;;2.60;99.90;;;;;;5046266;28;20388;-78
2022/12/04 12:21:07;;;;;;;7.07;5.00;;;2.60;99.90;;;;;;5039999;28;20024;-78
2022/12/04 12:24:15;;;;;;;7.88;5.13;;;2.70;99.90;;;;;;5037486;28;20037;-77
2022/12/04 12:27:01;;;;;;;7.47;5.15;;;2.80;99.90;;;;;;4991389;28;20038;-77
2022/12/04 12:29:55;;;;;;;9.27;5.68;;;2.80;99.90;;;;;;5036106;28;20044;-78
2022/12/04 12:32:51;;;;;;;6.93;4.65;;;2.90;99.90;;;;;;5032605;28;20033;-78
2022/12/04 12:35:46;;;;;;;8.90;5.75;;;3.00;99.90;;;;;;5004633;28;20098;-78
2022/12/04 12:38:21;;;;;;;9.40;5.22;;;3.10;99.90;;;;;;5034198;28;20512;-78
2022/12/04 12:40:55;;;;;;;10.00;6.53;;;3.30;99.90;;;;;;5037423;28;20028;-77
2022/12/04 12:43:31;;;;;;;7.65;5.43;;;3.40;99.90;;;;;;5033759;28;20072;-78
2022/12/04 12:46:19;;;;;;;9.13;5.97;;;3.50;99.90;;;;;;5043549;28;20112;-78
2022/12/04 12:49:13;;;;;;;11.57;6.88;;;3.60;99.90;;;;;;5047757;28;20128;-77
2022/12/04 12:52:06;;;;;;;9.90;6.07;;;3.60;99.90;;;;;;5047132;28;20486;-77
2022/12/04 12:54:38;;;;;;;8.88;6.13;;;3.70;99.90;;;;;;5016610;28;20494;-79
2022/12/04 12:57:11;;;;;;;8.70;5.53;;;3.70;99.90;;;;;;5026611;28;20075;-79
2022/12/04 12:59:51;;;;;;;8.73;5.65;;;3.70;99.90;;;;;;5038302;28;20028;-80
2022/12/04 13:02:27;;;;;;;8.65;5.47;;;3.70;99.90;;;;;;5012639;28;20414;-79
2022/12/04 13:04:57;;;;;;;7.60;5.13;;;3.70;99.90;;;;;;5039900;28;20043;-79
2022/12/04 13:07:41;;;;;;;6.95;4.70;;;3.70;99.90;;;;;;5042007;28;20037;-79
2022/12/04 13:10:13;;;;;;;6.93;5.22;;;3.70;99.90;;;;;;5029547;28;20497;-79
2022/12/04 13:13:01;;;;;;;8.55;5.63;;;3.70;99.90;;;;;;5040069;28;20065;-78
2022/12/04 13:15:48;;;;;;;8.40;5.35;;;3.60;99.90;;;;;;5037660;28;20029;-80
2022/12/04 13:18:31;;;;;;;10.30;6.47;;;3.60;99.90;;;;;;5035170;28;20030;-79
2022/12/04 13:21:05;;;;;;;9.82;6.68;;;3.50;99.90;;;;;;5040286;28;20508;-78
2022/12/04 13:24:02;;;;;;;9.23;6.63;;;3.50;99.90;;;;;;5025747;28;20064;-79
2022/12/04 13:26:40;;;;;;;12.95;7.57;;;3.50;99.90;;;;;;5048633;28;20541;-79
2022/12/04 13:29:09;;;;;;;15.10;9.45;;;3.60;99.90;;;;;;5042241;28;20035;-79